ROTAER D-AMDT 33/19

Manicoré ( SBMY ) / MANICORÉ, AM 05 49 01S/061 17 02W
AD PUB 3E UTC-4 53 (174)

05 - ( 1265x30 ASPH 12/F/C/Y/U ) - 23

SBAZ (CINDACTA 4)
COM -
RÁDIO [1] [4] [5] 125.900
RDONAV -
NDB MCR [1] 310 0548.43S/06116.92W
CMB- [6] TF
MET -

[3] [7]

AIS - [1] [2] [3]

RMK -

INFORMAÇÃO ADICIONAL
  1. OBS concentração de pássaros (urubus) na perna do vento da RWY 05 e nas proximidades das laterais da RWY 05/23
COMPL -
  • [1] OPR INFRAERO
  • [2] Para informações adicionais consultar o Centro de Informações Aeronáuticas Amazônico. (CAIS-AZ) TEL: 3652-5955
  • [3] Autoatendimento
  • [4] (MON,TUE,WED,THU,FRI 1215-1600 Exc. HOL)
  • [5] (MON,TUE,WED,THU,FRI 1715-2045 Exc. HOL)
  • [6] HJ. Somente para ACFT ETA 7 e 7º/8º GAV, demais ACFT FAB, somente com autorização da ALA 8.
  • [7] Para informações adicionais consultar o núcleo do Centro Integrado de Meteorologia Aeronáutica TEL: (21) 2101-6865 ou (21) 2174-7306
TEMP (0)

Suplementos AIP (0)

NOTAM (2)

Z0951/19 N 02/08/2019 20:21
AIS SUP AIP N166/17 CNL


Z1375/18 N 27/08/2018 12:36
AFIS HR SER MON TIL FRI 1215-1600 1715-2045 EXC HOL
REF: ROTAER 3-M


Nascer/Por do Sol

10:10

22:07


METAR

Não disponível

TAF

172100Z 1800/1812 15007KT 9999 SCT010TN23/1810Z TX27/1812Z RMK PHI=


Cartas (0)


Rotas Preferenciais (0)